X  Schlie├čen METAR Luftfahrt Wetterdaten     EBBR Brussels Airport
Temperatur
6°C Temperatur
1°C Taupunkt
71% Feuchtigkeit



Wind
6 M/S
13 MPS
21 KM/S
11 KTS



170°
S
Aktuelle Wetterlage

Klar Klar
Luftdruck 1000 (hPa) - 29.53 (inHg)
Sichtweite 6 (Meile) - 9.7 (Km)
Flughafen
Flughafen Code EBBR

Position : Brussels Airport
Entfernung: 10 (Km)

Metar:
EBBR 241950Z 17011KT CAVOK 06/01 Q1000 NOSIG

Zeit: 24-02-2024 20:50 CET